Terminal Aerodrome Forecast
Issued by NWS Hastings, NE

Home | Current Version | Previous Version | Text Only | Print | Product List | Glossary On
Versions: 1 2 3 4 5 6 7 8 9 10 11 12 13 14 15 16 17 18 19 20 21 22 23 24 25 26 27 28 29 30 31 32 33 34 35 36 37 38 39 40 41 42 43 44 45
000
FTUS43 KGID 010531
TAFGRI
TAF
KGRI 010531Z 0106/0206 16005KT P6SM SCT120 BKN200 WS006/20035KT
     FM011400 19010KT P6SM BKN120
     FM011800 18013G23KT P6SM BKN120
     FM020200 15010KT P6SM SCT120 WS007/18040KT=

USA.gov is the U.S. government's official web portal to all federal, state and local government web resources and services.